Time;durP1;ratioP1;P1;durP2;ratioP2;P2;SDS_P1;SDS_P2;PMS_P1;PMS_P2;Temp;Humidity;BMP_temperature;BMP_pressure;BME280_temperature;BME280_humidity;BME280_pressure;Samples;Min_cycle;Max_cycle;Signal;HPM_P1;HPM_P2
2023/05/17 00:01:30;;;;;;;15.23;4.25;;;;;;;-146.27;97.00;83555.50;5036758;28;20301;-70
2023/05/17 00:03:55;;;;;;;13.23;4.53;;;;;;;-146.27;97.17;83563.53;5043038;28;20580;-70
2023/05/17 00:06:21;;;;;;;18.48;3.85;;;;;;;-146.27;96.60;83525.34;5033360;28;20393;-70
2023/05/17 00:08:46;;;;;;;18.17;3.97;;;;;;;-146.27;96.01;83489.19;5051227;28;20052;-70
2023/05/17 00:11:11;;;;;;;19.17;4.90;;;;;;;-146.27;95.47;83541.41;5041533;28;20052;-71
2023/05/17 00:13:38;;;;;;;20.42;3.97;;;;;;;-146.27;95.53;83533.38;5046245;28;20029;-68
2023/05/17 00:16:04;;;;;;;9.60;3.70;;;;;;;-146.27;95.67;83428.91;5050963;28;20052;-71
2023/05/17 00:18:30;;;;;;;19.63;4.10;;;;;;;-146.27;95.97;83497.22;5050374;28;20106;-70
2023/05/17 00:20:55;;;;;;;22.92;4.43;;;;;;;-146.27;95.41;83497.22;5035249;28;20025;-69
2023/05/17 00:23:20;;;;;;;19.42;3.78;;;;;;;-146.27;95.26;83517.31;5040630;28;20021;-68
2023/05/17 00:25:46;;;;;;;14.55;4.00;;;;;;;-146.27;95.76;83553.47;5050698;28;20037;-70
2023/05/17 00:28:11;;;;;;;17.25;3.83;;;;;;;-146.27;95.52;83513.28;5050701;28;20036;-71
2023/05/17 00:30:36;;;;;;;15.18;3.95;;;;;;;-146.27;95.32;83489.19;5049810;28;20021;-68
2023/05/17 00:33:03;;;;;;;15.43;3.80;;;;;;;-146.27;95.64;83549.47;5048733;28;20040;-70
2023/05/17 00:35:28;;;;;;;23.45;5.20;;;;;;;-146.27;96.84;83543.44;5050455;28;20035;-70
2023/05/17 00:37:53;;;;;;;16.73;3.90;;;;;;;-146.27;96.65;83561.53;5050499;28;20032;-71
2023/05/17 00:40:19;;;;;;;14.10;3.40;;;;;;;-146.27;96.50;83539.41;5049725;28;20043;-70
2023/05/17 00:42:44;;;;;;;14.25;4.70;;;;;;;-146.27;96.23;83545.44;5049632;28;20051;-69
2023/05/17 00:45:10;;;;;;;13.52;3.53;;;;;;;-146.27;96.13;83575.59;5039582;28;20022;-70
2023/05/17 00:47:35;;;;;;;13.85;3.58;;;;;;;-146.27;96.09;83549.47;5044886;28;20024;-69
2023/05/17 00:50:01;;;;;;;23.02;3.97;;;;;;;-146.27;96.66;83545.44;5049627;28;20024;-70
2023/05/17 00:52:27;;;;;;;19.33;4.78;;;;;;;-146.27;96.76;83549.47;5044976;28;20373;-70
2023/05/17 00:54:52;;;;;;;18.35;5.05;;;;;;;-146.27;96.50;83549.47;5049087;28;20078;-70
2023/05/17 00:57:17;;;;;;;18.90;3.80;;;;;;;-146.27;96.99;83561.53;5069368;28;20060;-70
2023/05/17 00:59:43;;;;;;;20.52;3.63;;;;;;;-146.27;96.76;83559.50;5066096;28;20510;-70
2023/05/17 01:02:10;;;;;;;14.35;3.75;;;;;;;-146.27;97.10;83589.66;5071710;28;20028;-69
2023/05/17 01:04:37;;;;;;;20.38;4.25;;;;;;;-146.27;97.62;83557.50;5071222;28;20036;-70
2023/05/17 01:07:03;;;;;;;17.17;4.20;;;;;;;-146.27;97.51;83557.50;5071172;28;20060;-69
2023/05/17 01:09:28;;;;;;;12.90;3.90;;;;;;;-146.27;97.90;83567.53;5008712;28;1096621;-70
2023/05/17 01:12:31;;;;;;;15.63;4.00;;;;;;;-146.27;99.00;83555.50;5061977;28;20071;-70
2023/05/17 01:15:16;;;;;;;20.75;4.45;;;;;;;-146.27;97.63;83561.53;5064811;28;20082;-70
2023/05/17 01:18:00;;;;;;;21.55;4.70;;;;;;;-146.27;97.94;83561.53;5051990;28;20025;-70
2023/05/17 01:20:36;;;;;;;15.30;3.83;;;;;;;-146.27;98.32;83537.41;5048760;28;20874;-70
2023/05/17 01:23:23;;;;;;;19.80;3.97;;;;;;;-146.27;98.58;83557.50;5031774;28;20033;-71
2023/05/17 01:26:12;;;;;;;13.77;3.25;;;;;;;-146.27;98.71;83519.31;5045539;28;20095;-71
2023/05/17 01:28:39;;;;;;;14.93;3.50;;;;;;;-146.27;98.62;83533.38;5050553;28;20025;-70
2023/05/17 01:31:07;;;;;;;12.63;3.67;;;;;;;-146.27;99.24;83517.31;5032582;28;20416;-69
2023/05/17 01:33:33;;;;;;;22.92;3.97;;;;;;;-146.27;98.76;83525.34;5043859;28;20029;-70
2023/05/17 01:35:58;;;;;;;17.40;3.65;;;;;;;-146.27;98.79;83515.31;5050178;28;20075;-70
2023/05/17 01:38:24;;;;;;;15.43;4.00;;;;;;;-146.27;98.36;83511.28;5061941;28;20024;-70
2023/05/17 01:41:12;;;;;;;15.30;3.28;;;;;;;-146.27;97.49;83533.38;5071248;28;20493;-70
2023/05/17 01:43:54;;;;;;;14.77;3.67;;;;;;;-146.27;98.10;83537.41;5071424;28;20028;-69
2023/05/17 01:46:40;;;;;;;17.52;3.85;;;;;;;-146.27;98.39;83517.31;5067407;28;20495;-69
2023/05/17 01:49:21;;;;;;;10.60;3.30;;;;;;;-146.27;98.31;83537.41;5033600;28;20028;-71
2023/05/17 01:52:28;;;;;;;15.02;3.60;;;;;;;-146.27;97.93;83541.41;5031458;28;20029;-70
2023/05/17 01:55:15;;;;;;;20.05;3.88;;;;;;;-146.27;98.63;83549.47;5032658;28;20075;-69
2023/05/17 01:57:43;;;;;;;20.05;3.95;;;;;;;-146.27;98.47;83513.28;5043912;28;20051;-69
2023/05/17 02:00:11;;;;;;;22.33;4.20;;;;;;;-146.27;99.14;83529.38;5047064;28;20029;-69
2023/05/17 02:02:36;;;;;;;19.08;4.20;;;;;;;-146.27;98.83;83495.22;5048561;28;20029;-70
2023/05/17 02:05:02;;;;;;;17.40;4.38;;;;;;;-146.27;98.52;83529.38;5034658;28;20047;-71
2023/05/17 02:07:27;;;;;;;19.65;3.97;;;;;;;-146.27;98.94;83581.59;5048452;28;20090;-69
2023/05/17 02:09:53;;;;;;;20.00;5.72;;;;;;;-146.27;98.86;83545.44;5034306;28;20124;-69
2023/05/17 02:12:18;;;;;;;17.52;3.45;;;;;;;-146.27;99.10;83543.44;5030946;28;20116;-70
2023/05/17 02:14:43;;;;;;;18.67;4.35;;;;;;;-146.27;98.74;83527.34;5049452;28;20029;-70
2023/05/17 02:17:08;;;;;;;12.27;3.50;;;;;;;-146.27;98.93;83481.16;5050139;28;20027;-70
2023/05/17 02:19:34;;;;;;;13.80;3.67;;;;;;;-146.27;98.47;83537.41;5048674;28;20124;-71
2023/05/17 02:21:59;;;;;;;13.43;3.55;;;;;;;-146.27;98.75;83537.41;5049154;28;20636;-69
2023/05/17 02:24:25;;;;;;;16.83;3.75;;;;;;;-146.27;99.34;83515.31;5046697;28;20040;-69
2023/05/17 02:26:50;;;;;;;22.50;5.47;;;;;;;-146.27;99.14;83523.34;5039780;28;20029;-69
2023/05/17 02:29:16;;;;;;;17.50;3.67;;;;;;;-146.27;98.71;83513.28;5040722;28;20147;-70
2023/05/17 02:31:41;;;;;;;16.13;3.83;;;;;;;-146.27;99.56;83477.13;5046153;28;20374;-70
2023/05/17 02:34:06;;;;;;;11.32;3.58;;;;;;;-146.27;99.32;83497.22;5030384;28;20022;-70
2023/05/17 02:36:32;;;;;;;15.95;3.45;;;;;;;-146.27;98.47;83519.31;5043849;28;20064;-70
2023/05/17 02:38:57;;;;;;;19.23;4.07;;;;;;;-146.27;98.72;83529.38;5030160;28;20052;-70
2023/05/17 02:41:23;;;;;;;18.13;3.95;;;;;;;-146.27;99.65;83497.22;5042012;28;20112;-69
2023/05/17 02:43:48;;;;;;;14.75;3.67;;;;;;;-146.27;99.80;83509.28;5049626;28;20027;-69
2023/05/17 02:46:13;;;;;;;22.33;4.53;;;;;;;-146.27;99.76;83497.22;5050388;28;20033;-69
2023/05/17 02:48:39;;;;;;;14.43;4.45;;;;;;;-146.27;99.48;83481.16;5042766;28;20063;-71
2023/05/17 02:51:04;;;;;;;14.10;3.63;;;;;;;-146.27;100.00;83491.19;5044764;28;20040;-68
2023/05/17 02:53:29;;;;;;;16.10;3.88;;;;;;;-146.27;100.00;83479.13;5049204;28;20021;-71
2023/05/17 02:55:57;;;;;;;21.67;4.32;;;;;;;-146.27;99.88;83465.06;5030499;28;20255;-68
2023/05/17 02:58:24;;;;;;;9.93;2.92;;;;;;;-146.27;99.50;83529.38;5048315;28;20039;-69
2023/05/17 03:00:50;;;;;;;20.25;3.90;;;;;;;-146.27;99.94;83485.16;5050411;28;20536;-68
2023/05/17 03:03:15;;;;;;;11.57;3.70;;;;;;;-146.27;99.73;83507.25;5042822;28;20021;-69
2023/05/17 03:05:40;;;;;;;12.80;3.88;;;;;;;-146.27;100.00;83491.19;5045739;28;20176;-70
2023/05/17 03:08:06;;;;;;;17.40;3.88;;;;;;;-146.27;100.00;83489.19;5029895;28;20029;-70
2023/05/17 03:10:31;;;;;;;16.08;4.07;;;;;;;-146.27;100.00;83505.25;5034471;28;20033;-69
2023/05/17 03:12:56;;;;;;;13.15;2.83;;;;;;;-146.27;100.00;83467.06;5047515;28;20132;-68
2023/05/17 03:15:22;;;;;;;17.15;3.92;;;;;;;-146.27;100.00;83412.81;5050601;28;20472;-70
2023/05/17 03:17:47;;;;;;;11.95;3.30;;;;;;;-146.27;100.00;83483.16;5049485;28;20037;-69
2023/05/17 03:20:13;;;;;;;9.18;3.40;;;;;;;-146.27;100.00;83535.41;5049231;28;20021;-69
2023/05/17 03:22:38;;;;;;;20.00;4.32;;;;;;;-146.27;100.00;83473.09;5042318;28;20066;-69
2023/05/17 03:25:05;;;;;;;11.55;4.35;;;;;;;-146.27;100.00;83493.19;5046906;28;20060;-69
2023/05/17 03:27:30;;;;;;;11.20;2.92;;;;;;;-146.27;100.00;83469.09;5040984;28;20425;-68
2023/05/17 03:29:56;;;;;;;11.05;3.00;;;;;;;-146.27;100.00;83497.22;5048152;28;20062;-68
2023/05/17 03:32:22;;;;;;;20.55;3.35;;;;;;;-146.27;100.00;83483.16;5029982;28;20030;-70
2023/05/17 03:34:47;;;;;;;17.13;3.95;;;;;;;-146.27;100.00;83493.19;5041521;28;20033;-71
2023/05/17 03:37:12;;;;;;;12.90;4.43;;;;;;;-146.27;100.00;83440.94;5046744;28;20033;-69
2023/05/17 03:39:37;;;;;;;14.63;3.13;;;;;;;-146.27;98.90;83451.00;5045795;28;20025;-69
2023/05/17 03:42:03;;;;;;;15.02;3.70;;;;;;;-146.27;99.36;83485.16;5032733;28;20036;-69
2023/05/17 03:44:28;;;;;;;18.42;4.47;;;;;;;-146.27;98.79;83471.09;5032923;28;20064;-69
2023/05/17 03:46:54;;;;;;;17.20;2.92;;;;;;;-146.27;98.46;83477.13;5029822;28;20116;-70
2023/05/17 03:49:19;;;;;;;14.60;2.88;;;;;;;-146.27;97.48;83471.09;5044457;28;20056;-70
2023/05/17 03:51:45;;;;;;;16.55;2.47;;;;;;;-146.27;97.52;83521.34;5048674;28;20055;-71
2023/05/17 03:54:10;;;;;;;17.00;3.33;;;;;;;-146.27;97.48;83461.06;5043507;28;20025;-69
2023/05/17 03:56:35;;;;;;;10.02;2.63;;;;;;;-146.27;96.30;83440.94;5045528;28;20064;-70
2023/05/17 03:59:01;;;;;;;23.33;3.42;;;;;;;-146.27;96.36;83481.16;5033216;28;20056;-71
2023/05/17 04:01:26;;;;;;;13.88;2.92;;;;;;;-146.27;95.44;83567.53;5030037;28;20025;-69
2023/05/17 04:03:51;;;;;;;15.75;3.80;;;;;;;-146.27;94.99;83511.28;5044099;28;20039;-69
2023/05/17 04:06:17;;;;;;;18.27;2.83;;;;;;;-146.27;95.26;83549.47;5044471;28;20034;-69
2023/05/17 04:08:42;;;;;;;16.80;4.13;;;;;;;-146.27;95.53;83541.41;5033493;28;20037;-69
2023/05/17 04:11:12;;;;;;;21.42;3.80;;;;;;;-146.27;95.73;83537.41;5037515;28;20045;-68
2023/05/17 04:13:39;;;;;;;17.02;2.75;;;;;;;-146.27;96.82;83571.56;5043075;28;20025;-70
2023/05/17 04:16:05;;;;;;;10.70;2.28;;;;;;;-146.27;97.10;83597.69;5033152;28;20029;-70
2023/05/17 04:18:34;;;;;;;17.10;3.42;;;;;;;-146.27;96.60;83573.56;5041005;28;20111;-69
2023/05/17 04:21:00;;;;;;;14.38;2.53;;;;;;;-146.27;97.19;83561.53;5048149;28;20033;-68
2023/05/17 04:23:25;;;;;;;11.15;3.00;;;;;;;-146.27;96.97;83579.59;5036282;28;20029;-70
2023/05/17 04:25:51;;;;;;;13.25;3.03;;;;;;;-146.27;97.18;83609.75;5032990;28;20117;-69
2023/05/17 04:28:17;;;;;;;15.05;3.20;;;;;;;-146.27;97.38;83589.66;5048560;28;20032;-69
2023/05/17 04:30:42;;;;;;;18.85;3.70;;;;;;;-146.27;96.91;83641.91;5031814;28;20793;-70
2023/05/17 04:33:08;;;;;;;17.60;3.25;;;;;;;-146.27;96.52;83609.75;5048029;28;20104;-70
2023/05/17 04:35:33;;;;;;;14.68;2.30;;;;;;;-146.27;97.54;83702.19;5052671;28;20100;-69
2023/05/17 04:37:59;;;;;;;19.35;2.58;;;;;;;-146.27;96.83;83641.91;5047884;28;20446;-68
2023/05/17 04:40:24;;;;;;;13.70;2.75;;;;;;;-146.27;97.11;83645.91;5032507;28;20100;-71
2023/05/17 04:42:50;;;;;;;12.93;2.80;;;;;;;-146.27;97.11;83609.75;5050391;28;20120;-70
2023/05/17 04:45:16;;;;;;;16.08;2.50;;;;;;;-146.27;97.22;83575.59;5051734;28;20103;-68
2023/05/17 04:47:42;;;;;;;12.13;3.10;;;;;;;-146.27;96.97;83605.72;5050894;28;20457;-71
2023/05/17 04:50:08;;;;;;;14.45;2.55;;;;;;;-146.27;95.90;83643.91;5051510;28;20032;-68
2023/05/17 04:52:33;;;;;;;14.27;2.80;;;;;;;-146.27;95.73;83702.19;5034511;28;20041;-68
2023/05/17 04:54:58;;;;;;;25.10;4.10;;;;;;;-146.27;96.29;83621.81;5046831;28;20049;-69
2023/05/17 04:57:24;;;;;;;19.20;2.60;;;;;;;-146.27;96.29;83611.75;5033724;28;20026;-72
2023/05/17 04:59:49;;;;;;;18.42;3.00;;;;;;;-146.27;95.96;83593.66;5035807;28;20653;-71
2023/05/17 05:02:15;;;;;;;13.80;2.70;;;;;;;-146.27;95.59;83647.91;5040292;28;20036;-70
2023/05/17 05:04:40;;;;;;;13.02;2.78;;;;;;;-146.27;95.61;83563.53;5051441;28;20055;-69
2023/05/17 05:07:05;;;;;;;17.05;2.40;;;;;;;-146.27;94.83;83583.63;5050667;28;20533;-70
2023/05/17 05:09:31;;;;;;;20.63;3.13;;;;;;;-146.27;95.84;83605.72;5034645;28;20417;-70
2023/05/17 05:11:56;;;;;;;21.38;2.72;;;;;;;-146.27;95.41;83605.72;5038568;28;20025;-69
2023/05/17 05:14:21;;;;;;;13.38;3.00;;;;;;;-146.27;95.32;83609.75;5050126;28;20073;-70
2023/05/17 05:16:47;;;;;;;18.60;3.30;;;;;;;-146.27;94.74;83549.47;5052077;28;20028;-70
2023/05/17 05:19:12;;;;;;;15.00;2.42;;;;;;;-146.27;95.63;83541.41;5035574;28;20036;-70
2023/05/17 05:21:38;;;;;;;18.45;3.17;;;;;;;-146.27;94.35;83561.53;5032289;28;20061;-69
2023/05/17 05:24:03;;;;;;;13.70;2.60;;;;;;;-146.27;93.38;83571.56;5048921;28;20020;-71
2023/05/17 05:26:29;;;;;;;20.23;3.03;;;;;;;-146.27;94.09;83533.38;5051854;28;20070;-70
2023/05/17 05:28:55;;;;;;;10.88;2.65;;;;;;;-146.27;92.99;83561.53;5049315;28;20032;-70
2023/05/17 05:31:20;;;;;;;15.85;2.95;;;;;;;-146.27;92.17;83533.38;5035381;28;20029;-69
2023/05/17 05:33:45;;;;;;;15.27;2.72;;;;;;;-146.27;92.29;83561.53;5043560;28;20025;-71
2023/05/17 05:36:11;;;;;;;12.40;2.72;;;;;;;-146.27;92.15;83479.13;5061882;28;20024;-69
2023/05/17 05:38:36;;;;;;;12.00;2.45;;;;;;;-146.27;90.13;83537.41;5057988;28;20508;-70
2023/05/17 05:41:02;;;;;;;15.63;2.53;;;;;;;-146.27;90.66;83513.28;5037909;28;20135;-69
2023/05/17 05:43:27;;;;;;;13.45;3.55;;;;;;;-146.27;89.77;83489.19;5044027;28;20103;-69
2023/05/17 05:45:52;;;;;;;17.48;2.67;;;;;;;-146.27;91.24;83489.19;5030940;28;20063;-70
2023/05/17 05:48:18;;;;;;;14.85;2.67;;;;;;;-146.27;90.35;83531.38;5045364;28;20388;-70
2023/05/17 05:50:43;;;;;;;10.40;1.95;;;;;;;-146.27;88.70;83489.19;5048970;28;20033;-69
2023/05/17 05:53:12;;;;;;;19.58;2.10;;;;;;;-146.27;87.30;83485.16;5047238;28;20148;-74
2023/05/17 05:55:41;;;;;;;19.42;1.95;;;;;;;-146.27;85.96;83444.97;5034317;28;20056;-71
2023/05/17 05:58:07;;;;;;;16.27;2.50;;;;;;;-146.27;86.14;83485.16;5045833;28;20036;-75
2023/05/17 06:00:32;;;;;;;13.85;2.17;;;;;;;-146.27;85.82;83440.94;5055002;28;20377;-75
2023/05/17 06:02:58;;;;;;;14.13;2.42;;;;;;;-146.27;84.23;83449.00;5048405;28;20116;-74
2023/05/17 06:05:23;;;;;;;9.95;2.85;;;;;;;-146.27;84.34;83432.91;5050354;28;20029;-75
2023/05/17 06:07:49;;;;;;;10.93;1.88;;;;;;;-146.27;83.75;83428.91;5049885;28;20385;-76
2023/05/17 06:10:14;;;;;;;12.20;2.15;;;;;;;-146.27;84.01;83410.81;5049367;28;20123;-76
2023/05/17 06:12:39;;;;;;;17.60;2.28;;;;;;;-146.27;83.63;83400.78;5050251;28;20033;-76
2023/05/17 06:15:06;;;;;;;12.15;1.83;;;;;;;-146.27;81.51;83390.72;5061630;28;20439;-75
2023/05/17 06:17:31;;;;;;;18.20;2.30;;;;;;;-146.27;80.50;83396.75;5050828;28;20512;-75
2023/05/17 06:19:56;;;;;;;11.48;2.47;;;;;;;-146.27;80.60;83368.63;5049240;28;20086;-75
2023/05/17 06:22:22;;;;;;;15.02;2.40;;;;;;;-146.27;79.19;83388.72;5039769;28;20039;-76
2023/05/17 06:24:47;;;;;;;13.65;2.35;;;;;;;-146.27;79.23;83376.66;5050429;28;20095;-74
2023/05/17 06:27:12;;;;;;;18.38;2.50;;;;;;;-146.27;74.73;83354.56;5041801;28;20037;-73
2023/05/17 06:29:38;;;;;;;12.48;2.00;;;;;;;-146.27;75.04;83344.50;5047417;28;20017;-73
2023/05/17 06:32:04;;;;;;;11.68;1.98;;;;;;;-146.27;74.44;83266.16;5044561;28;20016;-73
2023/05/17 06:34:29;;;;;;;14.02;2.67;;;;;;;-146.27;75.01;83314.38;5052447;28;20369;-73
2023/05/17 06:36:54;;;;;;;16.05;1.98;;;;;;;-146.27;73.31;83314.38;5050449;28;20048;-72
2023/05/17 06:39:20;;;;;;;21.42;2.47;;;;;;;-146.27;73.30;83280.22;5046541;28;20115;-73
2023/05/17 06:41:45;;;;;;;9.07;1.92;;;;;;;-146.27;73.17;83227.97;5056946;28;20024;-72
2023/05/17 06:44:11;;;;;;;12.60;2.28;;;;;;;-146.27;73.07;83286.25;5050845;28;20032;-72
2023/05/17 06:46:36;;;;;;;13.38;2.85;;;;;;;-146.27;74.05;83260.13;5053618;28;20279;-72
2023/05/17 06:49:01;;;;;;;8.63;1.92;;;;;;;-146.27;76.06;83229.97;5062735;28;20028;-73
2023/05/17 06:51:27;;;;;;;21.85;2.08;;;;;;;-146.27;74.65;83187.78;5051108;28;20473;-72
2023/05/17 06:53:52;;;;;;;15.65;2.83;;;;;;;-146.27;74.47;83199.84;5067057;28;20058;-72
2023/05/17 06:56:17;;;;;;;20.48;2.22;;;;;;;-146.27;73.18;83155.63;5051058;28;20556;-72
2023/05/17 06:58:43;;;;;;;11.07;1.75;;;;;;;-146.27;71.57;83135.53;5050693;28;20341;-73
2023/05/17 07:01:08;;;;;;;15.82;2.50;;;;;;;-146.27;71.91;83143.59;5047774;28;20052;-72
2023/05/17 07:03:34;;;;;;;11.85;2.17;;;;;;;-146.27;71.63;83123.50;5046100;28;20471;-72
2023/05/17 07:06:00;;;;;;;11.75;2.17;;;;;;;-146.27;70.00;83115.47;5043257;28;20116;-72
2023/05/17 07:08:25;;;;;;;10.45;1.90;;;;;;;-146.27;68.78;83097.38;5039191;28;20148;-72
2023/05/17 07:10:51;;;;;;;11.10;1.70;;;;;;;-146.27;67.94;83119.47;5049428;28;20131;-73
2023/05/17 07:13:16;;;;;;;19.85;2.67;;;;;;;-146.27;68.77;83133.53;5037559;28;20029;-73
2023/05/17 07:15:42;;;;;;;18.85;2.67;;;;;;;-146.27;70.07;83147.59;5044826;28;20021;-73
2023/05/17 07:18:07;;;;;;;12.40;2.38;;;;;;;-146.27;69.63;83143.59;5037974;28;20033;-73
2023/05/17 07:20:33;;;;;;;17.10;2.13;;;;;;;-146.27;69.64;83175.72;5038578;28;20025;-73
2023/05/17 07:22:58;;;;;;;13.13;1.90;;;;;;;-146.27;71.40;83181.75;5034628;28;20036;-73
2023/05/17 07:25:23;;;;;;;17.08;2.55;;;;;;;-146.27;72.07;83201.84;5044543;28;20025;-73
2023/05/17 07:27:49;;;;;;;17.45;2.30;;;;;;;-146.27;70.32;83215.91;5035467;28;20056;-74
2023/05/17 07:30:14;;;;;;;9.02;2.20;;;;;;;-146.27;71.42;83195.81;5037422;28;20019;-72
2023/05/17 07:32:39;;;;;;;15.65;1.98;;;;;;;-146.27;68.28;83203.88;5034861;28;20544;-72
2023/05/17 07:35:05;;;;;;;8.20;1.67;;;;;;;-146.27;67.72;83304.31;5043137;28;20032;-73
2023/05/17 07:37:30;;;;;;;13.38;1.75;;;;;;;-146.27;67.96;83209.88;5051568;28;20079;-73
2023/05/17 07:39:56;;;;;;;11.80;1.88;;;;;;;-146.27;67.75;83207.88;5054482;28;20025;-73
2023/05/17 07:42:21;;;;;;;9.82;1.45;;;;;;;-146.27;65.98;83203.88;5073592;28;20064;-73
2023/05/17 07:44:48;;;;;;;12.90;1.45;;;;;;;-146.27;66.61;83183.78;5056786;28;20536;-73
2023/05/17 07:47:14;;;;;;;9.20;1.13;;;;;;;-146.27;65.54;83179.75;5044422;28;20036;-73
2023/05/17 07:49:40;;;;;;;13.75;1.67;;;;;;;-146.27;66.59;83139.56;5056229;28;20013;-73
2023/05/17 07:52:05;;;;;;;8.95;1.48;;;;;;;-146.27;66.38;83129.53;5055101;28;20548;-73
2023/05/17 07:54:31;;;;;;;7.68;1.38;;;;;;;-146.27;64.97;83097.38;5043491;28;20056;-72
2023/05/17 07:56:56;;;;;;;9.48;1.42;;;;;;;-146.27;63.84;83141.56;5049887;28;20131;-71
2023/05/17 07:59:23;;;;;;;8.73;1.17;;;;;;;-146.27;58.97;83097.38;5073278;28;20063;-73
2023/05/17 08:01:48;;;;;;;15.65;1.85;;;;;;;-146.27;62.87;83051.16;5052327;28;20053;-76
2023/05/17 08:04:13;;;;;;;10.27;1.50;;;;;;;-146.27;59.40;83065.22;5051980;28;20033;-75
2023/05/17 08:06:40;;;;;;;8.93;1.42;;;;;;;-146.27;59.53;83057.19;5045620;28;20078;-74
2023/05/17 08:09:06;;;;;;;4.95;1.00;;;;;;;-146.27;58.09;83031.06;5044061;28;20045;-74
2023/05/17 08:11:33;;;;;;;9.98;1.40;;;;;;;-146.27;59.24;83027.06;5041635;28;20072;-76
2023/05/17 08:13:58;;;;;;;12.50;1.40;;;;;;;-146.27;60.40;83019.03;5048990;28;20091;-75
2023/05/17 08:16:24;;;;;;;7.75;1.48;;;;;;;-146.27;58.92;83043.13;5031714;28;20495;-76
2023/05/17 08:18:49;;;;;;;6.40;1.20;;;;;;;-146.27;55.70;82968.78;5049918;28;20029;-74
2023/05/17 08:21:15;;;;;;;6.22;1.48;;;;;;;-146.27;56.18;83010.97;5034679;28;20481;-76
2023/05/17 08:23:40;;;;;;;5.28;1.10;;;;;;;-146.27;56.96;83041.13;5045779;28;20079;-75
2023/05/17 08:26:06;;;;;;;11.15;1.83;;;;;;;-146.27;56.23;83023.03;5048953;28;20108;-75
2023/05/17 08:28:31;;;;;;;11.35;1.80;;;;;;;-146.27;58.75;82978.84;5044013;28;20453;-72
2023/05/17 08:30:57;;;;;;;10.55;1.25;;;;;;;-146.27;56.73;82966.78;5047052;28;20040;-72
2023/05/17 08:33:24;;;;;;;6.18;1.70;;;;;;;-146.27;54.94;82950.72;5052340;28;20522;-72
2023/05/17 08:35:51;;;;;;;10.50;1.10;;;;;;;-146.27;53.59;82950.72;5048754;28;20039;-71
2023/05/17 08:38:17;;;;;;;9.25;2.65;;;;;;;-146.27;54.87;82928.59;5045561;28;20025;-76
2023/05/17 08:40:42;;;;;;;4.60;0.93;;;;;;;-146.27;52.76;82880.41;5052272;28;20033;-76
2023/05/17 08:43:11;;;;;;;6.43;1.40;;;;;;;-146.27;53.10;82914.53;5060518;28;20024;-76
2023/05/17 08:45:37;;;;;;;7.57;1.38;;;;;;;-146.27;53.16;82904.50;5047939;28;20028;-75
2023/05/17 08:48:04;;;;;;;10.73;1.75;;;;;;;-146.27;55.32;82886.41;5041710;28;20041;-76
2023/05/17 08:50:32;;;;;;;11.32;1.00;;;;;;;-146.27;53.99;82878.38;5047084;28;20108;-77
2023/05/17 08:52:58;;;;;;;9.50;1.42;;;;;;;-146.27;54.27;82884.41;5046931;28;20025;-76
2023/05/17 08:55:26;;;;;;;7.38;1.55;;;;;;;-146.27;51.39;82874.38;5045357;28;20488;-75
2023/05/17 08:57:53;;;;;;;4.57;1.25;;;;;;;-146.27;50.42;82834.19;5044850;28;20144;-77
2023/05/17 09:00:20;;;;;;;7.50;1.20;;;;;;;-146.27;52.70;82844.22;5037819;28;20089;-76
2023/05/17 09:02:47;;;;;;;6.78;1.17;;;;;;;-146.27;50.93;82796.00;5040179;28;20419;-76
2023/05/17 09:05:15;;;;;;;11.15;1.52;;;;;;;-146.27;51.18;82814.09;5060218;28;20031;-76
2023/05/17 09:07:41;;;;;;;7.70;1.10;;;;;;;-146.27;49.54;82810.06;5071228;28;20087;-77
2023/05/17 09:10:07;;;;;;;9.45;1.50;;;;;;;-146.27;46.80;82840.22;5036840;28;20488;-76
2023/05/17 09:12:36;;;;;;;6.18;0.98;;;;;;;-146.27;52.30;82806.06;5046691;28;20180;-75
2023/05/17 09:15:16;;;;;;;8.77;1.55;;;;;;;-146.27;54.39;82741.78;5051409;28;20025;-77
2023/05/17 09:17:52;;;;;;;12.43;1.80;;;;;;;-146.27;50.11;82737.75;5035109;28;20033;-77
2023/05/17 09:20:23;;;;;;;7.45;1.30;;;;;;;-146.27;50.35;82761.84;5050772;28;20028;-76
2023/05/17 09:22:49;;;;;;;11.07;1.30;;;;;;;-146.27;50.70;82703.59;5044349;28;20033;-76
2023/05/17 09:25:19;;;;;;;5.90;1.20;;;;;;;-146.27;51.46;82637.31;5046302;28;20029;-77
2023/05/17 09:27:45;;;;;;;4.97;0.85;;;;;;;-146.27;48.51;82649.34;5037092;28;20032;-76
2023/05/17 09:30:10;;;;;;;13.73;1.45;;;;;;;-146.27;49.63;82629.28;5038635;28;20014;-75
2023/05/17 09:32:42;;;;;;;6.82;1.42;;;;;;;-146.27;48.25;82585.06;5031810;28;20401;-76
2023/05/17 09:35:09;;;;;;;8.18;1.48;;;;;;;-146.27;49.97;82607.16;5040568;28;20021;-75
2023/05/17 09:37:37;;;;;;;13.25;2.08;;;;;;;-146.27;49.17;82552.94;5045138;28;20029;-77
2023/05/17 09:40:05;;;;;;;5.68;1.30;;;;;;;-146.27;47.13;82550.91;5039694;28;20029;-76
2023/05/17 09:42:35;;;;;;;6.95;1.30;;;;;;;-146.27;48.77;82548.91;5042604;28;20163;-76
2023/05/17 09:45:01;;;;;;;7.20;1.65;;;;;;;-146.27;45.02;82542.88;5043417;28;20025;-75
2023/05/17 09:47:30;;;;;;;11.07;1.55;;;;;;;-146.27;47.26;82552.94;5049747;28;20515;-74
2023/05/17 09:50:01;;;;;;;10.30;2.15;;;;;;;-146.27;47.32;82558.97;5030647;28;20156;-71
2023/05/17 09:52:30;;;;;;;7.13;1.58;;;;;;;-146.27;47.01;82536.84;5031246;28;20026;-70
2023/05/17 09:55:00;;;;;;;3.78;1.00;;;;;;;-146.27;46.31;82536.84;5030285;28;20241;-70
2023/05/17 09:57:27;;;;;;;12.85;1.42;;;;;;;-146.27;45.79;82492.66;5031063;28;20033;-70
2023/05/17 09:59:56;;;;;;;6.80;2.05;;;;;;;-146.27;43.03;82474.59;5030066;28;20025;-70
2023/05/17 10:02:26;;;;;;;12.98;1.55;;;;;;;-146.27;45.02;82436.41;5031717;28;20540;-71
2023/05/17 10:04:55;;;;;;;10.70;2.15;;;;;;;-146.27;44.43;82460.53;5030522;28;20044;-71
2023/05/17 10:07:24;;;;;;;6.38;1.58;;;;;;;-146.27;45.24;82464.53;5031015;28;20525;-72
2023/05/17 10:09:50;;;;;;;9.50;1.58;;;;;;;-146.27;46.64;82392.22;5030313;28;20083;-71
2023/05/17 10:12:20;;;;;;;8.45;1.67;;;;;;;-146.27;44.40;82366.09;5030761;28;20537;-71
2023/05/17 10:14:46;;;;;;;4.95;1.13;;;;;;;-146.27;44.23;82400.25;5034859;28;20525;-71
2023/05/17 10:17:13;;;;;;;10.75;1.23;;;;;;;-146.27;42.49;82392.22;5033958;28;20110;-70
2023/05/17 10:19:38;;;;;;;6.25;0.95;;;;;;;-146.27;41.87;82422.34;5031846;28;20024;-71
2023/05/17 10:22:05;;;;;;;4.25;1.77;;;;;;;-146.27;43.46;82388.22;5029164;28;20025;-70
2023/05/17 10:24:31;;;;;;;5.57;1.23;;;;;;;-146.27;44.06;82370.13;5030657;28;20108;-71
2023/05/17 10:26:57;;;;;;;5.80;1.30;;;;;;;-146.27;41.87;82368.13;5030449;28;20986;-71
2023/05/17 10:29:23;;;;;;;7.88;1.52;;;;;;;-146.27;41.91;82346.03;5030494;28;20021;-71
2023/05/17 10:31:52;;;;;;;9.32;1.40;;;;;;;-146.27;41.69;82299.81;5031491;28;20026;-71
2023/05/17 10:34:18;;;;;;;9.88;1.50;;;;;;;-146.27;42.43;82311.88;5030832;28;20132;-71
2023/05/17 10:36:45;;;;;;;6.32;1.38;;;;;;;-146.27;44.18;82297.81;5030437;28;20030;-71
2023/05/17 10:39:11;;;;;;;7.25;1.10;;;;;;;-146.27;44.48;82217.47;5042854;28;20028;-71
2023/05/17 10:41:41;;;;;;;5.20;1.13;;;;;;;-146.27;42.53;82205.41;5038264;28;20388;-70
2023/05/17 10:44:08;;;;;;;5.03;1.10;;;;;;;-146.27;42.62;82259.66;5030836;28;20060;-72
2023/05/17 10:46:35;;;;;;;6.05;1.80;;;;;;;-146.27;40.13;82231.53;5030365;28;20034;-70
2023/05/17 10:49:01;;;;;;;8.63;2.17;;;;;;;-146.27;42.69;82227.50;5033476;28;20021;-70
2023/05/17 10:51:36;;;;;;;5.55;1.10;;;;;;;-146.27;43.43;82175.28;5053034;28;20028;-71
2023/05/17 10:54:01;;;;;;;6.95;1.30;;;;;;;-146.27;44.20;82161.22;5070628;28;20073;-70
2023/05/17 10:56:29;;;;;;;8.85;1.52;;;;;;;-146.27;43.86;82193.34;5048993;28;20025;-70
2023/05/17 10:59:13;;;;;;;7.60;1.40;;;;;;;-146.27;41.85;82123.06;5032587;28;20029;-70
2023/05/17 11:02:05;;;;;;;9.10;1.60;;;;;;;-146.27;42.43;82092.91;5030706;28;20508;-71
2023/05/17 11:04:41;;;;;;;7.65;1.20;;;;;;;-146.27;46.18;82111.00;5031017;28;20132;-71
2023/05/17 11:07:28;;;;;;;9.55;1.80;;;;;;;-146.27;43.07;82048.72;5030118;28;20030;-71
2023/05/17 11:09:54;;;;;;;5.72;1.40;;;;;;;-146.27;42.63;82018.59;5029951;28;20050;-71
2023/05/17 11:12:54;;;;;;;13.63;1.48;;;;;;;-146.27;43.46;82024.63;5033150;28;20057;-71